Time;durP1;ratioP1;P1;durP2;ratioP2;P2;SDS_P1;SDS_P2;PMS_P1;PMS_P2;Temp;Humidity;BMP_temperature;BMP_pressure;BME280_temperature;BME280_humidity;BME280_pressure;Samples;Min_cycle;Max_cycle;Signal;HPM_P1;HPM_P2
2021/03/15 00:00:58;;;;;;;18.80;4.60;;;;;;;9.10;75.54;100444.69;6248697;22;20031;-75
2021/03/15 00:03:25;;;;;;;26.05;5.88;;;;;;;9.15;75.51;100455.63;6248869;23;20004;-73
2021/03/15 00:05:51;;;;;;;22.98;5.88;;;;;;;9.17;75.97;100456.22;6266099;22;20012;-74
2021/03/15 00:08:18;;;;;;;23.33;5.90;;;;;;;9.14;75.63;100454.00;6270999;22;20082;-74
2021/03/15 00:10:43;;;;;;;19.60;5.78;;;;;;;9.12;75.70;100458.88;6241620;22;20015;-73
2021/03/15 00:13:09;;;;;;;21.30;5.20;;;;;;;9.09;75.78;100448.47;6246335;23;20004;-74
2021/03/15 00:15:35;;;;;;;27.48;5.90;;;;;;;9.13;75.46;100462.44;6244212;23;20008;-76
2021/03/15 00:18:01;;;;;;;20.77;5.28;;;;;;;9.15;75.15;100463.81;6241954;23;20007;-72
2021/03/15 00:20:27;;;;;;;26.63;5.55;;;;;;;9.16;75.27;100462.75;6263759;22;20019;-74
2021/03/15 00:22:54;;;;;;;28.45;6.20;;;;;;;9.14;74.81;100454.00;6252446;22;20508;-73
2021/03/15 00:25:19;;;;;;;36.50;6.05;;;;;;;9.06;75.23;100462.63;6281865;22;20003;-74
2021/03/15 00:27:46;;;;;;;27.90;7.18;;;;;;;9.17;74.33;100478.03;6247928;22;20003;-72
2021/03/15 00:30:14;;;;;;;35.38;5.82;;;;;;;9.17;75.39;100479.94;6260068;22;20011;-74
2021/03/15 00:32:40;;;;;;;30.95;6.13;;;;;;;9.17;75.17;100486.22;6278396;22;20003;-74
2021/03/15 00:35:08;;;;;;;27.73;6.57;;;;;;;9.15;74.80;100480.19;6282335;22;20022;-75
2021/03/15 00:37:34;;;;;;;18.63;5.53;;;;;;;9.16;75.24;100472.84;6278977;22;20110;-73
2021/03/15 00:39:59;;;;;;;18.08;5.22;;;;;;;9.14;74.53;100467.66;6277986;22;20007;-74
2021/03/15 00:42:25;;;;;;;16.42;5.07;;;;;;;9.13;74.37;100479.63;6246326;22;20319;-73
2021/03/15 00:44:51;;;;;;;24.98;5.88;;;;;;;9.13;74.55;100471.44;6279173;22;20012;-73
2021/03/15 00:47:16;;;;;;;26.45;5.65;;;;;;;9.15;74.26;100472.00;6253645;22;20049;-73
2021/03/15 00:49:42;;;;;;;22.23;4.57;;;;;;;9.17;74.25;100486.22;6253445;22;20004;-75
2021/03/15 00:52:08;;;;;;;26.88;4.90;;;;;;;9.13;74.03;100466.00;6231182;22;20014;-75
2021/03/15 00:54:33;;;;;;;26.95;5.63;;;;;;;9.18;74.28;100490.59;6255813;22;20008;-76
2021/03/15 00:56:59;;;;;;;19.98;4.88;;;;;;;9.18;73.88;100479.66;6255052;22;20011;-73
2021/03/15 00:59:24;;;;;;;19.98;5.28;;;;;;;9.22;73.73;100483.53;6248610;22;20022;-72
2021/03/15 01:01:50;;;;;;;18.70;4.78;;;;;;;9.20;73.67;100472.06;6251809;22;20311;-74
2021/03/15 01:04:16;;;;;;;18.58;5.20;;;;;;;9.21;73.98;100481.91;6251199;22;20011;-74
2021/03/15 01:06:45;;;;;;;21.55;5.32;;;;;;;9.23;73.52;100477.03;6256048;22;20015;-73
2021/03/15 01:09:11;;;;;;;19.63;4.28;;;;;;;9.23;73.62;100485.19;6279403;22;20086;-74
2021/03/15 01:11:40;;;;;;;25.33;5.60;;;;;;;9.25;72.83;100471.31;6279510;22;20050;-75
2021/03/15 01:14:06;;;;;;;18.05;4.80;;;;;;;9.26;72.96;100483.88;6255574;22;20003;-73
2021/03/15 01:16:32;;;;;;;25.60;5.18;;;;;;;9.33;73.02;100489.13;6277988;22;20003;-74
2021/03/15 01:18:58;;;;;;;24.20;5.00;;;;;;;9.36;72.84;100488.59;6255908;22;20000;-75
2021/03/15 01:21:24;;;;;;;16.88;4.70;;;;;;;9.39;72.92;100501.75;6279104;22;20028;-73
2021/03/15 01:23:49;;;;;;;24.08;5.82;;;;;;;9.42;72.68;100493.06;6277807;22;20007;-72
2021/03/15 01:26:15;;;;;;;27.83;5.32;;;;;;;9.36;72.60;100489.44;6226999;22;20011;-75
2021/03/15 01:28:40;;;;;;;14.32;4.25;;;;;;;9.39;72.18;100491.66;6281556;22;20099;-73
2021/03/15 01:31:06;;;;;;;17.67;4.03;;;;;;;9.46;72.00;100496.09;6252807;22;20015;-74
2021/03/15 01:33:31;;;;;;;11.00;3.90;;;;;;;9.43;72.30;100505.59;6280504;22;20422;-73
2021/03/15 01:35:59;;;;;;;15.25;4.30;;;;;;;9.48;71.91;100513.84;6250783;22;20010;-74
2021/03/15 01:38:24;;;;;;;19.95;4.60;;;;;;;9.47;71.54;100505.94;6225171;22;20023;-73
2021/03/15 01:40:50;;;;;;;18.55;4.88;;;;;;;9.48;71.70;100502.94;6279019;22;20016;-73
2021/03/15 01:43:16;;;;;;;20.45;3.83;;;;;;;9.41;71.52;100485.94;6250612;22;19999;-74
2021/03/15 01:45:44;;;;;;;20.13;5.25;;;;;;;9.31;73.17;100494.00;6278698;22;20008;-73
2021/03/15 01:48:13;;;;;;;40.67;7.35;;;;;;;9.28;72.96;100492.63;6279701;22;20088;-73
2021/03/15 01:50:44;;;;;;;15.88;5.20;;;;;;;9.14;73.36;100491.34;6282873;22;20018;-77
2021/03/15 01:53:14;;;;;;;24.30;4.85;;;;;;;9.05;74.31;100489.09;6285112;22;20019;-77
2021/03/15 01:55:40;;;;;;;30.38;5.65;;;;;;;8.99;74.06;100494.72;6285313;22;20003;-78
2021/03/15 01:58:25;;;;;;;31.08;5.13;;;;;;;8.91;74.69;100499.53;6282733;22;20022;-77
2021/03/15 02:00:51;;;;;;;20.42;4.28;;;;;;;8.82;75.29;100479.25;6285133;22;20019;-77
2021/03/15 02:03:17;;;;;;;23.00;4.20;;;;;;;8.76;74.77;100480.28;6292717;22;19994;-76
2021/03/15 02:05:42;;;;;;;20.30;4.88;;;;;;;8.77;75.10;100486.53;6283311;22;20004;-74
2021/03/15 02:08:08;;;;;;;17.77;4.63;;;;;;;8.68;75.42;100478.78;6285778;22;20337;-75
2021/03/15 02:10:35;;;;;;;17.40;3.80;;;;;;;8.78;74.59;100483.56;6259312;22;19996;-76
2021/03/15 02:13:15;;;;;;;15.50;4.88;;;;;;;8.71;75.43;100489.19;6265717;22;20011;-77
2021/03/15 02:15:48;;;;;;;26.83;5.75;;;;;;;8.78;75.96;100499.09;6295203;22;20009;-76
2021/03/15 02:18:20;;;;;;;33.33;5.75;;;;;;;8.64;75.97;100477.63;6288693;22;20004;-76
2021/03/15 02:20:54;;;;;;;21.45;5.63;;;;;;;8.64;76.97;100493.19;6291526;22;20015;-74
2021/03/15 02:23:53;;;;;;;29.38;5.47;;;;;;;8.58;76.91;100491.47;6284372;22;20011;-75
2021/03/15 02:27:03;;;;;;;38.88;6.45;;;;;;;8.58;77.42;100483.28;6278945;22;20010;-75
2021/03/15 02:30:06;;;;;;;29.30;5.65;;;;;;;8.50;77.56;100481.81;6255352;22;19995;-75
2021/03/15 02:33:02;;;;;;;41.35;7.03;;;;;;;8.42;78.38;100479.50;6279098;22;19991;-72
2021/03/15 02:35:29;;;;;;;28.92;6.60;;;;;;;8.32;78.46;100488.31;6281682;22;20010;-74
2021/03/15 02:38:02;;;;;;;28.67;6.13;;;;;;;8.32;78.18;100491.06;6271057;22;20008;-74
2021/03/15 02:40:49;;;;;;;33.80;7.20;;;;;;;8.31;78.40;100483.94;6282394;22;20071;-73
2021/03/15 02:43:21;;;;;;;33.65;6.97;;;;;;;8.27;79.83;100499.97;6271302;22;20311;-74
2021/03/15 02:45:52;;;;;;;30.75;6.00;;;;;;;8.20;79.05;100489.22;6276172;22;19999;-72
2021/03/15 02:48:19;;;;;;;22.23;6.70;;;;;;;8.18;79.11;100474.25;6277594;22;20418;-73
2021/03/15 02:50:46;;;;;;;30.55;6.55;;;;;;;8.13;80.19;100483.16;6251733;22;20141;-74
2021/03/15 02:53:17;;;;;;;27.65;6.55;;;;;;;8.14;79.79;100484.78;6277905;22;20057;-77
2021/03/15 02:55:48;;;;;;;35.40;7.57;;;;;;;8.13;80.05;100487.75;6252253;22;19996;-75
2021/03/15 02:58:15;;;;;;;27.52;6.03;;;;;;;8.13;79.79;100494.06;6253292;22;20007;-75
2021/03/15 03:00:43;;;;;;;30.50;6.20;;;;;;;8.15;79.37;100491.91;6278374;22;20010;-75
2021/03/15 03:03:09;;;;;;;40.17;7.78;;;;;;;8.10;79.92;100493.72;6279297;22;20003;-75
2021/03/15 03:05:39;;;;;;;37.60;6.90;;;;;;;8.11;80.43;100501.63;6244185;22;20008;-75
2021/03/15 03:08:07;;;;;;;35.40;6.60;;;;;;;8.14;79.50;100503.84;6251915;22;20011;-76
2021/03/15 03:10:34;;;;;;;24.75;5.82;;;;;;;8.11;79.53;100493.47;6278253;22;20010;-75
2021/03/15 03:13:01;;;;;;;31.33;5.97;;;;;;;8.11;80.28;100507.06;6276518;22;20419;-74
2021/03/15 03:15:31;;;;;;;25.77;5.88;;;;;;;8.16;80.37;100507.19;6279197;22;20011;-73
2021/03/15 03:18:00;;;;;;;27.30;6.57;;;;;;;8.19;79.25;100503.94;6278828;22;19999;-73
2021/03/15 03:20:27;;;;;;;26.73;6.35;;;;;;;8.26;79.50;100514.66;6274433;22;20007;-75
2021/03/15 03:22:55;;;;;;;34.42;6.57;;;;;;;8.24;79.79;100518.72;6249554;22;20015;-73
2021/03/15 03:25:23;;;;;;;39.30;7.47;;;;;;;8.25;80.02;100495.84;6276849;22;19999;-74
2021/03/15 03:28:06;;;;;;;28.08;6.22;;;;;;;8.29;79.36;100502.44;6277970;22;20070;-75
2021/03/15 03:30:37;;;;;;;27.40;6.00;;;;;;;8.30;79.72;100515.00;6278564;22;20410;-75
2021/03/15 03:33:06;;;;;;;24.27;5.53;;;;;;;8.29;79.71;100518.78;6280857;22;20035;-74
2021/03/15 03:35:32;;;;;;;24.92;6.43;;;;;;;8.24;79.40;100525.00;6252553;22;20004;-74
2021/03/15 03:38:01;;;;;;;38.17;6.75;;;;;;;8.24;79.93;100526.91;6250380;22;20383;-73
2021/03/15 03:40:27;;;;;;;18.02;5.63;;;;;;;8.16;80.65;100531.69;6279634;22;20330;-74
2021/03/15 03:42:53;;;;;;;35.08;5.65;;;;;;;8.17;80.64;100529.78;6275055;22;20048;-75
2021/03/15 03:45:22;;;;;;;31.83;6.85;;;;;;;8.19;79.97;100536.63;6251143;22;20025;-74
2021/03/15 03:47:48;;;;;;;53.53;7.80;;;;;;;8.17;81.03;100546.13;6279536;22;20007;-74
2021/03/15 03:50:17;;;;;;;29.77;6.70;;;;;;;8.14;80.55;100547.44;6254579;22;20060;-74
2021/03/15 03:52:54;;;;;;;20.83;6.30;;;;;;;8.19;81.10;100547.53;6278483;22;20007;-75
2021/03/15 03:55:22;;;;;;;26.13;7.13;;;;;;;8.18;80.88;100540.44;6280396;22;20006;-74
2021/03/15 03:57:51;;;;;;;39.15;6.43;;;;;;;8.17;80.86;100544.22;6279897;22;20307;-74
2021/03/15 04:00:25;;;;;;;29.70;6.20;;;;;;;8.12;80.68;100544.16;6276207;22;19996;-74
2021/03/15 04:02:53;;;;;;;21.50;5.80;;;;;;;8.12;80.48;100556.91;6254043;22;20079;-73
2021/03/15 04:05:28;;;;;;;29.73;7.15;;;;;;;8.00;80.25;100540.66;6247163;22;20389;-73
2021/03/15 04:08:03;;;;;;;21.77;4.75;;;;;;;8.07;79.45;100559.56;6294143;22;19999;-72
2021/03/15 04:10:30;;;;;;;16.17;4.55;;;;;;;8.05;80.08;100562.53;6277515;22;20022;-72
2021/03/15 04:13:03;;;;;;;24.23;3.83;;;;;;;8.07;79.45;100567.75;6274451;22;20084;-75
2021/03/15 04:15:29;;;;;;;16.98;3.28;;;;;;;8.07;79.41;100559.56;6279358;22;20003;-76
2021/03/15 04:17:57;;;;;;;15.98;3.08;;;;;;;8.08;79.02;100566.69;6278894;22;20015;-74
2021/03/15 04:20:30;;;;;;;17.20;3.13;;;;;;;8.12;78.87;100578.72;6224314;22;20347;-73
2021/03/15 04:22:58;;;;;;;15.13;3.33;;;;;;;8.10;78.36;100576.22;6283427;22;20016;-74
2021/03/15 04:25:29;;;;;;;10.48;3.35;;;;;;;8.16;78.93;100585.31;6278007;22;20000;-75
2021/03/15 04:27:56;;;;;;;10.77;4.07;;;;;;;8.26;77.79;100584.69;6279016;22;20034;-74
2021/03/15 04:30:23;;;;;;;17.17;3.58;;;;;;;8.27;77.18;100586.34;6280443;22;20004;-75
2021/03/15 04:32:53;;;;;;;14.68;3.30;;;;;;;8.21;77.97;100588.97;6282405;22;20004;-73
2021/03/15 04:35:30;;;;;;;12.45;3.85;;;;;;;8.21;77.08;100586.25;6283338;22;20019;-75
2021/03/15 04:38:07;;;;;;;15.40;3.85;;;;;;;8.16;77.97;100597.06;6283504;22;20003;-75
2021/03/15 04:40:35;;;;;;;8.45;3.13;;;;;;;8.14;78.07;100603.81;6285082;22;20010;-76
2021/03/15 04:43:01;;;;;;;21.73;4.00;;;;;;;8.07;78.16;100598.53;6284584;22;20004;-76
2021/03/15 04:45:44;;;;;;;15.88;3.63;;;;;;;8.03;78.17;100597.34;6278394;22;19996;-76
2021/03/15 04:48:31;;;;;;;18.10;3.75;;;;;;;7.97;77.33;100606.50;6282026;22;20012;-73
2021/03/15 04:50:59;;;;;;;15.75;3.55;;;;;;;7.88;78.78;100597.09;6284359;22;20031;-75
2021/03/15 04:56:50;;;;;;;9.43;3.40;;;;;;;7.77;77.71;100599.63;6313713;22;20003;-75
2021/03/15 04:59:29;;;;;;;15.27;3.95;;;;;;;7.63;77.94;100592.81;6312001;22;19999;-74
2021/03/15 05:02:00;;;;;;;16.45;3.17;;;;;;;7.71;78.28;100619.66;6287722;22;20003;-77
2021/03/15 05:04:26;;;;;;;13.05;3.63;;;;;;;7.69;78.58;100629.94;6285437;22;20013;-76
2021/03/15 05:06:54;;;;;;;8.25;3.05;;;;;;;7.64;78.60;100622.50;6287342;22;20074;-75
2021/03/15 05:09:20;;;;;;;7.38;2.20;;;;;;;7.59;77.69;100627.00;6309755;22;19999;-77
2021/03/15 05:11:46;;;;;;;8.02;2.45;;;;;;;7.53;78.05;100625.25;6306899;22;20375;-75
2021/03/15 05:14:12;;;;;;;6.50;2.05;;;;;;;7.59;78.25;100624.28;6284742;22;20010;-75
2021/03/15 05:16:42;;;;;;;12.05;2.33;;;;;;;7.61;78.51;100635.78;6313229;22;19999;-76
2021/03/15 05:19:12;;;;;;;5.00;1.55;;;;;;;7.62;77.64;100631.97;6314999;22;20003;-75
2021/03/15 05:21:41;;;;;;;6.45;1.70;;;;;;;7.59;78.56;100630.56;6287026;22;20003;-77
2021/03/15 05:24:08;;;;;;;10.05;1.88;;;;;;;7.55;78.11;100634.00;6284956;22;20015;-76
2021/03/15 05:26:37;;;;;;;6.70;1.95;;;;;;;7.62;77.33;100648.31;6312429;22;19999;-76
2021/03/15 05:29:05;;;;;;;7.78;1.60;;;;;;;7.62;78.04;100642.84;6287839;22;20068;-76
2021/03/15 05:31:32;;;;;;;6.82;2.03;;;;;;;7.62;77.34;100654.59;6282471;22;19999;-76
2021/03/15 05:34:00;;;;;;;2.50;1.95;;;;;;;7.61;77.79;100649.38;6287350;22;20014;-76
2021/03/15 05:36:27;;;;;;;13.13;2.05;;;;;;;7.60;77.98;100653.16;6286989;22;19999;-75
2021/03/15 05:38:56;;;;;;;4.70;1.55;;;;;;;7.55;77.33;100653.06;6313091;22;20449;-76
2021/03/15 05:41:38;;;;;;;5.55;1.90;;;;;;;7.54;78.16;100659.59;6286586;22;19999;-76
2021/03/15 05:44:40;;;;;;;10.93;1.80;;;;;;;7.61;77.70;100671.97;6286208;22;20003;-76
2021/03/15 05:47:36;;;;;;;10.40;2.80;;;;;;;7.61;78.68;100673.88;6304485;22;20003;-76
2021/03/15 05:50:11;;;;;;;;;;;;;;;7.62;78.06;100678.25;6287299;22;19999;-76
2021/03/15 05:53:10;;;;;;;11.65;2.80;;;;;;;7.56;77.89;100673.75;6311829;22;19909;-75
2021/03/15 05:55:48;;;;;;;10.00;2.30;;;;;;;7.55;77.39;100693.88;6250346;23;20015;-75
2021/03/15 05:58:52;;;;;;;6.10;1.98;;;;;;;7.50;78.38;100683.72;6249671;23;20059;-75
2021/03/15 06:01:36;;;;;;;9.02;2.05;;;;;;;7.51;77.46;100693.53;6252211;22;20004;-76
2021/03/15 06:04:18;;;;;;;10.18;3.08;;;;;;;7.53;77.55;100696.03;6252542;23;20028;-74
2021/03/15 06:06:48;;;;;;;6.85;1.80;;;;;;;7.55;78.23;100699.31;6249176;23;20035;-75
2021/03/15 06:09:19;;;;;;;7.60;1.88;;;;;;;7.49;78.07;100680.16;6251621;22;20004;-76
2021/03/15 06:11:49;;;;;;;10.45;3.03;;;;;;;7.50;77.53;100681.00;6251816;22;20011;-72
2021/03/15 06:14:15;;;;;;;10.20;1.95;;;;;;;7.55;77.85;100683.00;6246700;22;20000;-74
2021/03/15 06:16:41;;;;;;;8.80;2.75;;;;;;;7.62;77.26;100692.69;6246028;23;20030;-74
2021/03/15 06:19:07;;;;;;;6.45;2.05;;;;;;;7.61;77.85;100692.94;6301226;22;20008;-75
2021/03/15 06:21:35;;;;;;;9.85;2.35;;;;;;;7.64;77.62;100692.47;6250944;23;20055;-76
2021/03/15 06:24:04;;;;;;;6.45;2.03;;;;;;;7.64;77.60;100687.00;6253756;23;20027;-75
2021/03/15 06:26:30;;;;;;;6.07;2.13;;;;;;;7.73;76.67;100701.06;6247764;22;20015;-76
2021/03/15 06:29:03;;;;;;;5.15;1.60;;;;;;;7.82;76.55;100716.78;6251048;23;20023;-75
2021/03/15 06:31:30;;;;;;;9.68;2.10;;;;;;;7.83;76.62;100713.00;6250697;23;20330;-78
2021/03/15 06:33:57;;;;;;;3.15;2.15;;;;;;;7.88;76.32;100715.00;6251127;23;20004;-75
2021/03/15 06:36:23;;;;;;;4.00;1.48;;;;;;;7.91;76.02;100719.13;6254646;22;20011;-76
2021/03/15 06:38:49;;;;;;;3.95;1.67;;;;;;;7.93;76.39;100716.97;6254008;22;20331;-76
2021/03/15 06:41:16;;;;;;;7.07;2.03;;;;;;;7.93;77.22;100723.28;6227965;23;20008;-75
2021/03/15 06:43:41;;;;;;;4.70;2.03;;;;;;;7.93;76.43;100711.53;6248657;23;20038;-75
2021/03/15 06:46:09;;;;;;;8.45;2.30;;;;;;;8.01;77.01;100724.78;6225731;23;20012;-74
2021/03/15 06:48:35;;;;;;;5.60;1.75;;;;;;;8.05;76.70;100731.41;6247069;23;20023;-75
2021/03/15 06:51:00;;;;;;;8.48;1.30;;;;;;;8.04;76.50;100724.28;6252648;23;20008;-73
2021/03/15 06:53:38;;;;;;;3.45;1.65;;;;;;;8.16;76.07;100737.88;6246218;22;20097;-76
2021/03/15 06:56:13;;;;;;;7.05;1.67;;;;;;;8.21;75.25;100740.72;6252614;23;20016;-73
2021/03/15 06:58:57;;;;;;;6.50;1.80;;;;;;;8.32;75.30;100747.19;6254211;22;20000;-75
2021/03/15 07:01:25;;;;;;;6.30;1.80;;;;;;;8.37;74.99;100747.28;6252765;23;20008;-75
2021/03/15 07:04:04;;;;;;;6.07;1.70;;;;;;;8.46;75.21;100748.56;6276968;22;20076;-75
2021/03/15 07:06:40;;;;;;;6.05;1.45;;;;;;;8.55;74.61;100752.56;6249990;22;20096;-75
2021/03/15 07:09:13;;;;;;;10.73;2.75;;;;;;;8.55;75.34;100752.56;6255832;22;20010;-76
2021/03/15 07:11:39;;;;;;;12.23;2.80;;;;;;;8.60;75.17;100760.03;6229002;23;20012;-77
2021/03/15 07:14:05;;;;;;;5.40;2.03;;;;;;;8.65;74.08;100762.81;6258706;22;20031;-75
2021/03/15 07:16:32;;;;;;;9.15;1.65;;;;;;;8.70;73.97;100767.53;6223620;23;20035;-76
2021/03/15 07:19:03;;;;;;;4.25;2.15;;;;;;;8.69;74.39;100768.63;6250079;22;20336;-75
2021/03/15 07:21:39;;;;;;;13.68;2.25;;;;;;;8.76;74.08;100763.84;6247917;22;20012;-76
2021/03/15 07:24:09;;;;;;;10.70;2.58;;;;;;;8.89;74.42;100774.44;6222173;23;20011;-76
2021/03/15 07:26:39;;;;;;;6.72;2.30;;;;;;;8.99;73.55;100789.31;6250560;23;20012;-78
2021/03/15 07:29:32;;;;;;;7.88;2.30;;;;;;;9.14;73.88;100784.13;6250646;23;20387;-77
2021/03/15 07:31:58;;;;;;;3.45;1.70;;;;;;;9.24;72.96;100788.91;6253643;22;20083;-80
2021/03/15 07:34:26;;;;;;;5.32;1.98;;;;;;;9.33;72.23;100802.97;6227339;23;20007;-78
2021/03/15 07:37:00;;;;;;;4.75;1.95;;;;;;;9.43;72.41;100805.84;6252074;23;20004;-77
2021/03/15 07:39:28;;;;;;;9.13;1.92;;;;;;;9.53;72.77;100806.00;6251968;22;20004;-78
2021/03/15 07:42:03;;;;;;;4.53;1.88;;;;;;;9.65;72.15;100810.56;6247748;23;20004;-78
2021/03/15 07:44:34;;;;;;;10.60;1.88;;;;;;;9.76;71.75;100831.50;6253056;22;20148;-78
2021/03/15 07:47:01;;;;;;;5.70;2.08;;;;;;;9.84;71.55;100838.41;6249481;23;20005;-78
2021/03/15 07:49:29;;;;;;;8.02;2.38;;;;;;;9.95;71.42;100832.03;6250437;22;20019;-79
2021/03/15 07:51:58;;;;;;;6.40;2.10;;;;;;;10.05;70.95;100836.81;6252335;22;20008;-80
2021/03/15 07:54:25;;;;;;;11.68;2.38;;;;;;;10.20;70.36;100847.94;6289029;22;20022;-78
2021/03/15 07:57:22;;;;;;;4.10;1.42;;;;;;;10.44;70.15;100853.19;6313862;22;19995;-80
2021/03/15 07:59:57;;;;;;;;;;;;;;;10.73;69.50;100855.72;6288038;22;20425;-78
2021/03/15 08:02:28;;;;;;;13.27;3.03;;;;;;;10.91;68.46;100863.59;6311366;22;19987;-78
2021/03/15 08:04:55;;;;;;;3.47;1.42;;;;;;;11.16;68.17;100859.44;6313607;22;20224;-77
2021/03/15 08:07:24;;;;;;;4.57;1.83;;;;;;;11.35;66.91;100865.38;6287626;22;20330;-80
2021/03/15 08:09:59;;;;;;;9.45;1.80;;;;;;;11.58;66.12;100872.41;6266250;22;20489;-80
2021/03/15 08:12:37;;;;;;;7.40;2.47;;;;;;;11.72;65.37;100875.50;6286934;22;20045;-79
2021/03/15 08:15:07;;;;;;;2.38;1.17;;;;;;;11.94;65.53;100875.41;6286852;22;20503;-78
2021/03/15 08:17:36;;;;;;;7.22;2.05;;;;;;;12.12;64.83;100887.03;6315811;22;20059;-78
2021/03/15 08:24:00;;;;;;;12.18;2.55;;;;;;;12.38;63.12;100869.66;6232403;23;19996;-79
2021/03/15 08:26:30;;;;;;;6.30;1.63;;;;;;;12.37;62.64;100868.00;6294709;22;20449;-76
2021/03/15 08:29:01;;;;;;;9.00;2.10;;;;;;;12.36;62.19;100866.34;6303017;22;20598;-80
2021/03/15 08:31:41;;;;;;;5.90;1.58;;;;;;;12.56;62.01;100886.75;6330200;22;20025;-79
2021/03/15 08:34:29;;;;;;;9.07;2.20;;;;;;;12.73;61.25;100901.06;6320248;22;20014;-81
2021/03/15 08:37:17;;;;;;;5.22;2.47;;;;;;;12.77;61.81;100895.03;6318074;22;19996;-78
2021/03/15 08:39:45;;;;;;;5.13;1.40;;;;;;;12.81;60.82;100898.91;6319391;22;20003;-78
2021/03/15 08:42:14;;;;;;;3.95;1.90;;;;;;;12.92;60.30;100912.38;6293353;22;20007;-77
2021/03/15 08:44:51;;;;;;;6.55;1.77;;;;;;;12.87;59.53;100908.78;6291924;22;20003;-78
2021/03/15 08:48:13;;;;;;;3.28;1.42;;;;;;;13.03;60.08;100924.22;6292373;22;20025;-78
2021/03/15 08:50:42;;;;;;;6.78;2.50;;;;;;;12.87;58.78;100919.78;6292577;22;20003;-76
2021/03/15 08:53:35;;;;;;;4.65;1.23;;;;;;;12.97;59.16;100927.22;6315413;22;19999;-78
2021/03/15 08:56:03;;;;;;;8.45;1.73;;;;;;;13.16;58.91;100938.53;6291949;22;20090;-79
2021/03/15 08:58:45;;;;;;;5.30;1.92;;;;;;;13.20;58.03;100926.72;6290553;22;20066;-82
2021/03/15 09:01:39;;;;;;;4.60;1.50;;;;;;;13.40;57.84;100938.88;6290439;22;20007;-85
2021/03/15 09:04:16;;;;;;;1.83;1.33;;;;;;;13.69;58.75;100952.91;6287143;22;20026;-81
2021/03/15 09:06:48;;;;;;;3.13;1.30;;;;;;;14.07;56.34;100942.44;6261734;22;20010;-77
2021/03/15 09:09:49;;;;;;;3.60;1.40;;;;;;;14.79;56.89;100950.56;6316400;22;20003;-79
2021/03/15 09:12:17;;;;;;;8.18;1.80;;;;;;;15.21;54.27;100944.84;6162266;22;20023;-81
2021/03/15 09:15:02;;;;;;;12.20;2.20;;;;;;;15.69;53.95;100953.34;6317162;22;20742;-78
2021/03/15 09:20:19;;;;;;;3.03;1.23;;;;;;;16.44;51.66;100941.09;6294929;22;20038;-82
2021/03/15 09:23:23;;;;;;;6.63;1.38;;;;;;;16.93;50.48;100952.97;6266254;22;20007;-81
2021/03/15 09:25:49;;;;;;;3.75;1.75;;;;;;;17.17;48.76;100947.41;6290228;22;20010;-81
2021/03/15 09:28:15;;;;;;;2.33;1.42;;;;;;;17.39;48.73;100955.09;6290922;22;20003;-81
2021/03/15 09:30:41;;;;;;;2.72;1.80;;;;;;;17.72;47.96;100962.59;6288488;22;20363;-80
2021/03/15 09:33:07;;;;;;;3.33;1.48;;;;;;;18.04;46.51;100969.31;6317809;22;20003;-81
2021/03/15 09:36:07;;;;;;;6.80;1.27;;;;;;;18.29;44.65;100965.25;6311383;22;20033;-79
2021/03/15 09:38:37;;;;;;;5.22;1.38;;;;;;;18.16;44.99;100944.72;6288649;22;19995;-78
2021/03/15 09:41:05;;;;;;;5.13;2.05;;;;;;;18.46;43.78;100948.06;6310087;22;19999;-80
2021/03/15 09:43:31;;;;;;;6.38;1.63;;;;;;;18.77;43.67;100972.38;6313748;22;20055;-79
2021/03/15 09:46:04;;;;;;;11.27;1.58;;;;;;;19.27;43.05;100972.44;6311616;22;20099;-78
2021/03/15 09:48:35;;;;;;;3.60;1.90;;;;;;;19.82;41.50;100976.19;6289351;22;19999;-81
2021/03/15 09:51:22;;;;;;;;;;;;;;;;;;;;;
2021/03/15 09:53:50;;;;;;;3.03;1.13;;;;;;;20.99;36.64;100978.91;6305193;22;20015;-81
2021/03/15 09:59:44;;;;;;;4.78;1.80;;;;;;;20.53;35.04;100984.63;6310993;22;20462;-80
2021/03/15 10:02:29;;;;;;;9.80;2.38;;;;;;;20.33;36.29;100980.44;6263316;22;20007;-80
2021/03/15 10:09:43;;;;;;;;;;;;;;;;;;;;;
2021/03/15 10:12:22;;;;;;;3.20;2.05;;;;;;;19.50;36.11;100986.34;6159640;22;19981;-79
2021/03/15 10:16:05;;;;;;;2.97;2.35;;;;;;;19.52;36.37;100990.47;6199710;22;20007;-81
2021/03/15 10:19:19;;;;;;;15.68;6.80;;;;;;;19.49;36.81;100987.47;6219026;23;20108;-79
2021/03/15 10:22:18;;;;;;;;;;;;;;;;;;;;;
2021/03/15 10:24:54;;;;;;;7.50;5.10;;;;;;;21.88;34.03;100998.16;6221878;23;20043;-76
2021/03/15 10:27:47;;;;;;;;;;;;;;;;;;;;;
2021/03/15 10:30:14;;;;;;;7.75;6.10;;;;;;;23.24;32.41;101007.88;6226103;23;20043;-80
2021/03/15 10:33:12;;;;;;;11.10;6.30;;;;;;;23.24;32.33;101002.31;6226843;23;20005;-79
2021/03/15 10:36:06;;;;;;;6.75;4.53;;;;;;;23.71;31.71;101004.91;6191095;23;20012;-82
2021/03/15 10:42:07;;;;;;;7.15;4.05;;;;;;;22.57;29.69;101010.31;6165059;23;20029;-79
2021/03/15 10:44:52;;;;;;;;;;;;;;;;;;;;;
2021/03/15 10:47:35;;;;;;;6.13;2.72;;;;;;;22.43;30.89;101030.06;6224006;23;20411;-79
2021/03/15 10:50:02;;;;;;;65.30;30.25;;;;;;;21.81;30.78;101020.09;6194421;23;20443;-78
2021/03/15 10:56:08;;;;;;;;;;;;;;;;;;;;;
2021/03/15 10:59:18;;;;;;;55.67;28.33;;;;;;;24.32;29.50;101039.84;6319233;22;20034;-79
2021/03/15 11:01:52;;;;;;;53.35;28.27;;;;;;;25.32;29.37;101033.22;6278564;22;20003;-79
2021/03/15 11:04:20;;;;;;;27.10;14.73;;;;;;;26.16;27.46;101024.09;6294836;22;20044;-78
2021/03/15 11:07:34;;;;;;;13.35;7.18;;;;;;;27.14;25.35;101047.06;6292622;22;20005;-80
2021/03/15 11:10:46;;;;;;;;;;;;;;;;;;;;;
2021/03/15 11:13:21;;;;;;;32.50;18.90;;;;;;;27.91;23.42;101030.72;6328314;22;20003;-80
2021/03/15 11:16:14;;;;;;;50.58;30.95;;;;;;;27.26;22.31;101041.34;6298688;22;20010;-79
2021/03/15 11:18:42;;;;;;;32.95;21.17;;;;;;;25.73;23.35;101034.88;6300345;22;20056;-80
2021/03/15 11:21:19;;;;;;;11.32;10.05;;;;;;;24.51;24.71;101026.16;6290411;22;20064;-79
2021/03/15 11:23:54;;;;;;;6.78;3.33;;;;;;;23.31;25.21;101019.34;6285785;22;20007;-82
2021/03/15 11:27:14;;;;;;;6.60;6.15;;;;;;;22.82;27.54;101028.94;6318647;22;20113;-81
2021/03/15 11:29:44;;;;;;;9.07;8.23;;;;;;;22.77;28.28;101020.72;6269534;22;20003;-79
2021/03/15 11:32:12;;;;;;;5.90;4.93;;;;;;;23.09;28.79;101029.59;6264806;22;20015;-80
2021/03/15 11:34:49;;;;;;;6.47;5.82;;;;;;;24.57;28.79;101035.97;6320591;22;20007;-81
2021/03/15 11:37:36;;;;;;;4.55;3.97;;;;;;;25.84;25.04;101028.78;6292110;22;19983;-79
2021/03/15 11:40:05;;;;;;;6.60;4.97;;;;;;;26.57;25.75;101033.22;6292658;22;20003;-81
2021/03/15 11:42:58;;;;;;;5.50;4.95;;;;;;;27.93;24.68;101034.78;6270474;22;20014;-80
2021/03/15 11:45:25;;;;;;;8.65;3.22;;;;;;;28.89;23.60;101037.78;6341734;22;20124;-80
2021/03/15 11:48:02;;;;;;;9.50;2.08;;;;;;;29.72;21.64;101030.56;6318586;22;20006;-79
2021/03/15 11:51:02;;;;;;;;;;;;;;;;;;;;;
2021/03/15 11:53:28;;;;;;;3.60;2.13;;;;;;;28.41;20.90;101039.34;6320508;22;20433;-79
2021/03/15 11:56:12;;;;;;;;;;;;;;;;;;;;;
2021/03/15 11:58:38;;;;;;;4.35;1.50;;;;;;;27.04;23.48;101048.44;6316886;22;20398;-78
2021/03/15 12:04:02;;;;;;;;;;;;;;;;;;;;;
2021/03/15 12:06:39;;;;;;;;;;;;;;;;;;;;;
2021/03/15 12:09:06;;;;;;;4.05;3.75;;;;;;;28.78;21.24;101052.88;6324510;22;20030;-78
2021/03/15 12:12:12;;;;;;;7.75;2.30;;;;;;;28.73;21.14;101054.81;6292834;22;20007;-77
2021/03/15 12:18:49;;;;;;;31.48;18.25;;;;;;;26.57;21.03;101077.28;6177110;23;20137;-84
2021/03/15 12:22:15;;;;;;;;;;;;;;;;;;;;;
2021/03/15 12:24:55;;;;;;;;;;;;;;;;;;;;;
2021/03/15 12:27:36;;;;;;;;;;;;;;;;;;;;;
2021/03/15 12:30:09;;;;;;;11.10;2.95;;;;;;;20.56;30.45;101052.63;6308166;22;20003;-83
2021/03/15 12:46:55;;;;;;;2.22;1.67;;;;;;;28.84;24.02;101060.63;6147793;23;20012;-82
2021/03/15 12:50:11;;;;;;;;;;;;;;;;;;;;;
2021/03/15 12:53:00;;;;;;;5.20;2.55;;;;;;;27.41;22.23;101076.22;6210102;22;20012;-83
2021/03/15 12:55:59;;;;;;;;;;;;;;;;;;;;;
2021/03/15 13:08:15;;;;;;;;;;;;;;;;;;;;;
2021/03/15 13:10:50;;;;;;;10.43;2.35;;;;;;;25.27;22.79;101062.22;6144028;23;20006;-83
2021/03/15 13:13:37;;;;;;;;;;;;;;;;;;;;;
2021/03/15 13:16:08;;;;;;;4.40;2.22;;;;;;;25.12;25.55;101055.38;6213305;23;20005;-82
2021/03/15 13:18:41;;;;;;;3.00;1.85;;;;;;;26.43;24.53;101058.06;6236387;22;20014;-83